sensor_id;sensor_type;location;lat;lon;timestamp;temperature;humidity
6824;DHT22;58633;49.470;11.004;2022-11-15T00:00:31;9.10;71.70
6824;DHT22;58633;49.470;11.004;2022-11-15T00:02:56;9.80;72.50
6824;DHT22;58633;49.470;11.004;2022-11-15T00:05:22;9.20;72.00
6824;DHT22;58633;49.470;11.004;2022-11-15T00:07:47;9.70;72.50
6824;DHT22;58633;49.470;11.004;2022-11-15T00:10:13;9.20;72.00
6824;DHT22;58633;49.470;11.004;2022-11-15T00:12:39;9.00;71.70
6824;DHT22;58633;49.470;11.004;2022-11-15T00:15:06;9.50;72.40
6824;DHT22;58633;49.470;11.004;2022-11-15T00:17:31;9.20;72.10
6824;DHT22;58633;49.470;11.004;2022-11-15T00:19:57;9.60;72.40
6824;DHT22;58633;49.470;11.004;2022-11-15T00:22:23;9.30;72.00
6824;DHT22;58633;49.470;11.004;2022-11-15T00:24:48;9.30;71.90
6824;DHT22;58633;49.470;11.004;2022-11-15T00:29:40;9.90;72.40
6824;DHT22;58633;49.470;11.004;2022-11-15T00:32:09;9.10;71.80
6824;DHT22;58633;49.470;11.004;2022-11-15T00:34:35;9.10;71.90
6824;DHT22;58633;49.470;11.004;2022-11-15T00:37:00;8.80;71.90
6824;DHT22;58633;49.470;11.004;2022-11-15T00:39:26;9.10;72.50
6824;DHT22;58633;49.470;11.004;2022-11-15T00:41:51;9.10;72.80
6824;DHT22;58633;49.470;11.004;2022-11-15T00:44:17;8.90;72.50
6824;DHT22;58633;49.470;11.004;2022-11-15T00:46:42;8.90;72.40
6824;DHT22;58633;49.470;11.004;2022-11-15T00:49:08;8.80;72.60
6824;DHT22;58633;49.470;11.004;2022-11-15T00:51:33;8.90;72.90
6824;DHT22;58633;49.470;11.004;2022-11-15T00:53:59;8.90;72.70
6824;DHT22;58633;49.470;11.004;2022-11-15T00:56:25;8.50;72.30
6824;DHT22;58633;49.470;11.004;2022-11-15T00:58:50;8.40;72.70
6824;DHT22;58633;49.470;11.004;2022-11-15T01:01:15;8.80;73.40
6824;DHT22;58633;49.470;11.004;2022-11-15T01:03:41;8.20;73.00
6824;DHT22;58633;49.470;11.004;2022-11-15T01:06:10;9.30;74.20
6824;DHT22;58633;49.470;11.004;2022-11-15T01:11:06;8.70;74.00
6824;DHT22;58633;49.470;11.004;2022-11-15T01:16:05;8.70;74.40
6824;DHT22;58633;49.470;11.004;2022-11-15T01:18:31;8.70;74.20
6824;DHT22;58633;49.470;11.004;2022-11-15T01:20:57;9.20;74.80
6824;DHT22;58633;49.470;11.004;2022-11-15T01:23:23;8.60;74.50
6824;DHT22;58633;49.470;11.004;2022-11-15T01:25:48;8.30;74.10
6824;DHT22;58633;49.470;11.004;2022-11-15T01:28:14;8.80;74.80
6824;DHT22;58633;49.470;11.004;2022-11-15T01:30:40;8.50;74.80
6824;DHT22;58633;49.470;11.004;2022-11-15T01:33:06;8.40;74.70
6824;DHT22;58633;49.470;11.004;2022-11-15T01:35:31;8.30;74.90
6824;DHT22;58633;49.470;11.004;2022-11-15T01:37:57;8.00;74.60
6824;DHT22;58633;49.470;11.004;2022-11-15T01:40:22;8.10;74.80
6824;DHT22;58633;49.470;11.004;2022-11-15T01:42:48;7.80;74.90
6824;DHT22;58633;49.470;11.004;2022-11-15T01:45:14;8.40;75.40
6824;DHT22;58633;49.470;11.004;2022-11-15T01:47:47;8.30;75.90
6824;DHT22;58633;49.470;11.004;2022-11-15T01:50:24;8.50;75.90
6824;DHT22;58633;49.470;11.004;2022-11-15T01:55:20;9.00;76.10
6824;DHT22;58633;49.470;11.004;2022-11-15T01:57:49;8.70;75.60
6824;DHT22;58633;49.470;11.004;2022-11-15T02:00:15;9.20;75.90
6824;DHT22;58633;49.470;11.004;2022-11-15T02:02:41;8.60;74.90
6824;DHT22;58633;49.470;11.004;2022-11-15T02:05:07;8.50;74.90
6824;DHT22;58633;49.470;11.004;2022-11-15T02:07:35;8.40;74.90
6824;DHT22;58633;49.470;11.004;2022-11-15T02:10:08;8.40;75.50
6824;DHT22;58633;49.470;11.004;2022-11-15T02:12:34;8.70;76.20
6824;DHT22;58633;49.470;11.004;2022-11-15T02:15:01;8.20;76.00
6824;DHT22;58633;49.470;11.004;2022-11-15T02:20:46;8.20;76.20
6824;DHT22;58633;49.470;11.004;2022-11-15T02:32:09;8.00;77.30
6824;DHT22;58633;49.470;11.004;2022-11-15T02:37:39;8.40;77.90
6824;DHT22;58633;49.470;11.004;2022-11-15T02:43:18;7.50;77.10
6824;DHT22;58633;49.470;11.004;2022-11-15T02:46:12;7.80;77.60
6824;DHT22;58633;49.470;11.004;2022-11-15T02:48:41;7.90;78.00
6824;DHT22;58633;49.470;11.004;2022-11-15T02:51:08;7.30;77.90
6824;DHT22;58633;49.470;11.004;2022-11-15T02:53:34;7.90;78.90
6824;DHT22;58633;49.470;11.004;2022-11-15T02:56:00;8.10;79.20
6824;DHT22;58633;49.470;11.004;2022-11-15T02:58:58;7.50;78.80
6824;DHT22;58633;49.470;11.004;2022-11-15T03:07:29;8.00;80.00
6824;DHT22;58633;49.470;11.004;2022-11-15T03:10:14;7.80;80.20
6824;DHT22;58633;49.470;11.004;2022-11-15T03:12:48;8.10;80.10
6824;DHT22;58633;49.470;11.004;2022-11-15T03:15:40;7.70;79.90
6824;DHT22;58633;49.470;11.004;2022-11-15T03:18:12;7.90;80.30
6824;DHT22;58633;49.470;11.004;2022-11-15T03:20:43;7.70;81.10
6824;DHT22;58633;49.470;11.004;2022-11-15T03:23:10;7.80;80.80
6824;DHT22;58633;49.470;11.004;2022-11-15T03:25:40;7.20;80.40
6824;DHT22;58633;49.470;11.004;2022-11-15T03:28:09;7.60;81.50
6824;DHT22;58633;49.470;11.004;2022-11-15T03:30:37;7.60;81.30
6824;DHT22;58633;49.470;11.004;2022-11-15T03:33:04;7.80;80.90
6824;DHT22;58633;49.470;11.004;2022-11-15T03:35:34;7.80;80.80
6824;DHT22;58633;49.470;11.004;2022-11-15T03:38:25;7.80;80.90
6824;DHT22;58633;49.470;11.004;2022-11-15T03:43:44;7.60;81.20
6824;DHT22;58633;49.470;11.004;2022-11-15T03:46:17;7.70;82.10
6824;DHT22;58633;49.470;11.004;2022-11-15T03:48:50;7.60;81.70
6824;DHT22;58633;49.470;11.004;2022-11-15T03:51:17;7.50;81.50
6824;DHT22;58633;49.470;11.004;2022-11-15T03:53:43;7.60;82.00
6824;DHT22;58633;49.470;11.004;2022-11-15T03:56:09;8.10;81.80
6824;DHT22;58633;49.470;11.004;2022-11-15T03:58:34;7.50;81.10
6824;DHT22;58633;49.470;11.004;2022-11-15T04:05:52;7.60;81.90
6824;DHT22;58633;49.470;11.004;2022-11-15T04:08:17;7.40;82.10
6824;DHT22;58633;49.470;11.004;2022-11-15T04:13:09;7.20;82.60
6824;DHT22;58633;49.470;11.004;2022-11-15T04:15:34;7.90;83.60
6824;DHT22;58633;49.470;11.004;2022-11-15T04:20:28;7.30;84.00
6824;DHT22;58633;49.470;11.004;2022-11-15T04:23:17;7.50;84.10
6824;DHT22;58633;49.470;11.004;2022-11-15T04:26:05;6.80;83.80
6824;DHT22;58633;49.470;11.004;2022-11-15T04:28:33;7.20;84.50
6824;DHT22;58633;49.470;11.004;2022-11-15T04:30:59;6.90;84.10
6824;DHT22;58633;49.470;11.004;2022-11-15T04:33:25;7.40;83.50
6824;DHT22;58633;49.470;11.004;2022-11-15T04:35:50;7.30;83.80
6824;DHT22;58633;49.470;11.004;2022-11-15T04:38:35;7.20;83.60
6824;DHT22;58633;49.470;11.004;2022-11-15T04:41:01;7.10;83.70
6824;DHT22;58633;49.470;11.004;2022-11-15T04:43:27;7.60;84.50
6824;DHT22;58633;49.470;11.004;2022-11-15T04:45:52;7.30;84.40
6824;DHT22;58633;49.470;11.004;2022-11-15T04:48:18;7.50;84.10
6824;DHT22;58633;49.470;11.004;2022-11-15T04:50:44;7.40;83.80
6824;DHT22;58633;49.470;11.004;2022-11-15T04:53:09;7.20;83.80
6824;DHT22;58633;49.470;11.004;2022-11-15T04:58:02;7.10;83.50
6824;DHT22;58633;49.470;11.004;2022-11-15T05:00:29;7.10;84.50
6824;DHT22;58633;49.470;11.004;2022-11-15T05:02:55;7.00;84.90
6824;DHT22;58633;49.470;11.004;2022-11-15T05:08:06;6.70;84.30
6824;DHT22;58633;49.470;11.004;2022-11-15T05:10:32;7.10;85.20
6824;DHT22;58633;49.470;11.004;2022-11-15T05:12:57;6.40;84.10
6824;DHT22;58633;49.470;11.004;2022-11-15T05:15:23;6.80;84.70
6824;DHT22;58633;49.470;11.004;2022-11-15T05:17:49;6.80;85.00
6824;DHT22;58633;49.470;11.004;2022-11-15T05:20:15;7.60;86.90
6824;DHT22;58633;49.470;11.004;2022-11-15T05:22:40;7.00;86.80
6824;DHT22;58633;49.470;11.004;2022-11-15T05:25:06;7.10;87.00
6824;DHT22;58633;49.470;11.004;2022-11-15T05:27:33;6.90;86.50
6824;DHT22;58633;49.470;11.004;2022-11-15T05:29:59;7.40;86.40
6824;DHT22;58633;49.470;11.004;2022-11-15T05:32:24;7.10;85.30
6824;DHT22;58633;49.470;11.004;2022-11-15T05:34:50;6.80;85.20
6824;DHT22;58633;49.470;11.004;2022-11-15T05:37:16;7.00;85.40
6824;DHT22;58633;49.470;11.004;2022-11-15T05:44:36;7.10;86.10
6824;DHT22;58633;49.470;11.004;2022-11-15T05:47:04;7.00;84.70
6824;DHT22;58633;49.470;11.004;2022-11-15T05:49:33;7.30;85.80
6824;DHT22;58633;49.470;11.004;2022-11-15T05:52:03;6.40;84.90
6824;DHT22;58633;49.470;11.004;2022-11-15T05:54:32;6.90;85.00
6824;DHT22;58633;49.470;11.004;2022-11-15T05:59:25;6.90;84.40
6824;DHT22;58633;49.470;11.004;2022-11-15T06:01:53;6.60;84.30
6824;DHT22;58633;49.470;11.004;2022-11-15T06:04:18;6.80;84.60
6824;DHT22;58633;49.470;11.004;2022-11-15T06:06:44;7.20;85.30
6824;DHT22;58633;49.470;11.004;2022-11-15T06:09:09;7.30;85.70
6824;DHT22;58633;49.470;11.004;2022-11-15T06:11:35;7.10;85.90
6824;DHT22;58633;49.470;11.004;2022-11-15T06:16:27;7.50;86.50
6824;DHT22;58633;49.470;11.004;2022-11-15T06:18:53;6.90;86.00
6824;DHT22;58633;49.470;11.004;2022-11-15T06:21:18;6.00;84.50
6824;DHT22;58633;49.470;11.004;2022-11-15T06:23:44;6.80;85.00
6824;DHT22;58633;49.470;11.004;2022-11-15T06:26:09;7.20;85.10
6824;DHT22;58633;49.470;11.004;2022-11-15T06:28:35;6.80;86.10
6824;DHT22;58633;49.470;11.004;2022-11-15T06:31:10;6.80;85.30
6824;DHT22;58633;49.470;11.004;2022-11-15T06:33:37;6.60;84.20
6824;DHT22;58633;49.470;11.004;2022-11-15T06:36:05;6.20;84.60
6824;DHT22;58633;49.470;11.004;2022-11-15T06:38:31;6.80;85.60
6824;DHT22;58633;49.470;11.004;2022-11-15T06:41:06;6.70;85.90
6824;DHT22;58633;49.470;11.004;2022-11-15T06:43:33;6.80;85.80
6824;DHT22;58633;49.470;11.004;2022-11-15T06:46:00;6.80;85.70
6824;DHT22;58633;49.470;11.004;2022-11-15T06:48:27;6.90;85.70
6824;DHT22;58633;49.470;11.004;2022-11-15T06:50:53;6.90;85.60
6824;DHT22;58633;49.470;11.004;2022-11-15T06:53:19;6.90;85.50
6824;DHT22;58633;49.470;11.004;2022-11-15T06:55:45;6.90;85.20
6824;DHT22;58633;49.470;11.004;2022-11-15T06:58:10;7.00;85.50
6824;DHT22;58633;49.470;11.004;2022-11-15T07:00:37;6.90;84.10
6824;DHT22;58633;49.470;11.004;2022-11-15T07:03:03;6.90;83.60
6824;DHT22;58633;49.470;11.004;2022-11-15T07:05:29;6.90;84.10
6824;DHT22;58633;49.470;11.004;2022-11-15T07:07:56;6.90;84.30
6824;DHT22;58633;49.470;11.004;2022-11-15T07:10:23;7.00;85.20
6824;DHT22;58633;49.470;11.004;2022-11-15T07:12:51;7.00;84.80
6824;DHT22;58633;49.470;11.004;2022-11-15T07:15:18;7.00;84.50
6824;DHT22;58633;49.470;11.004;2022-11-15T07:17:44;7.10;84.30
6824;DHT22;58633;49.470;11.004;2022-11-15T07:20:12;7.20;84.00
6824;DHT22;58633;49.470;11.004;2022-11-15T07:22:39;7.30;83.90
6824;DHT22;58633;49.470;11.004;2022-11-15T07:25:05;7.30;83.70
6824;DHT22;58633;49.470;11.004;2022-11-15T07:27:31;7.40;83.20
6824;DHT22;58633;49.470;11.004;2022-11-15T07:29:57;7.40;82.50
6824;DHT22;58633;49.470;11.004;2022-11-15T07:32:23;7.50;82.30
6824;DHT22;58633;49.470;11.004;2022-11-15T07:34:48;7.60;82.20
6824;DHT22;58633;49.470;11.004;2022-11-15T07:37:14;7.60;81.50
6824;DHT22;58633;49.470;11.004;2022-11-15T07:39:40;7.70;80.90
6824;DHT22;58633;49.470;11.004;2022-11-15T07:42:06;7.80;80.70
6824;DHT22;58633;49.470;11.004;2022-11-15T07:44:50;7.90;80.70
6824;DHT22;58633;49.470;11.004;2022-11-15T07:47:15;8.00;80.00
6824;DHT22;58633;49.470;11.004;2022-11-15T07:49:42;8.10;79.50
6824;DHT22;58633;49.470;11.004;2022-11-15T07:54:33;8.30;77.70
6824;DHT22;58633;49.470;11.004;2022-11-15T07:59:25;8.40;76.90
6824;DHT22;58633;49.470;11.004;2022-11-15T08:01:50;8.50;76.50
6824;DHT22;58633;49.470;11.004;2022-11-15T08:04:17;8.60;76.20
6824;DHT22;58633;49.470;11.004;2022-11-15T08:06:42;8.70;75.80
6824;DHT22;58633;49.470;11.004;2022-11-15T08:09:09;8.70;75.00
6824;DHT22;58633;49.470;11.004;2022-11-15T08:11:34;8.50;74.90
6824;DHT22;58633;49.470;11.004;2022-11-15T08:14:00;8.60;74.70
6824;DHT22;58633;49.470;11.004;2022-11-15T08:16:25;9.10;74.70
6824;DHT22;58633;49.470;11.004;2022-11-15T08:18:52;9.00;74.30
6824;DHT22;58633;49.470;11.004;2022-11-15T08:21:19;9.60;74.50
6824;DHT22;58633;49.470;11.004;2022-11-15T08:23:45;9.30;73.80
6824;DHT22;58633;49.470;11.004;2022-11-15T08:28:37;9.60;73.50
6824;DHT22;58633;49.470;11.004;2022-11-15T08:31:04;9.40;72.70
6824;DHT22;58633;49.470;11.004;2022-11-15T08:33:30;9.80;72.80
6824;DHT22;58633;49.470;11.004;2022-11-15T08:35:57;9.30;71.90
6824;DHT22;58633;49.470;11.004;2022-11-15T08:40:58;9.80;71.80
6824;DHT22;58633;49.470;11.004;2022-11-15T08:45:51;10.10;69.90
6824;DHT22;58633;49.470;11.004;2022-11-15T08:50:43;10.20;69.40
6824;DHT22;58633;49.470;11.004;2022-11-15T08:53:10;10.30;69.40
6824;DHT22;58633;49.470;11.004;2022-11-15T08:55:36;10.60;69.00
6824;DHT22;58633;49.470;11.004;2022-11-15T08:58:02;10.70;68.20
6824;DHT22;58633;49.470;11.004;2022-11-15T09:00:29;10.90;67.70
6824;DHT22;58633;49.470;11.004;2022-11-15T09:07:46;11.50;66.90
6824;DHT22;58633;49.470;11.004;2022-11-15T09:10:12;11.40;66.40
6824;DHT22;58633;49.470;11.004;2022-11-15T09:12:38;11.60;66.40
6824;DHT22;58633;49.470;11.004;2022-11-15T09:15:05;11.50;65.70
6824;DHT22;58633;49.470;11.004;2022-11-15T09:17:32;11.90;65.50
6824;DHT22;58633;49.470;11.004;2022-11-15T09:19:57;11.80;65.10
6824;DHT22;58633;49.470;11.004;2022-11-15T09:22:23;11.60;64.80
6824;DHT22;58633;49.470;11.004;2022-11-15T09:24:49;11.50;64.60
6824;DHT22;58633;49.470;11.004;2022-11-15T09:27:15;11.70;64.50
6824;DHT22;58633;49.470;11.004;2022-11-15T09:29:41;11.80;64.80
6824;DHT22;58633;49.470;11.004;2022-11-15T09:32:06;12.00;64.40
6824;DHT22;58633;49.470;11.004;2022-11-15T09:39:26;12.40;64.00
6824;DHT22;58633;49.470;11.004;2022-11-15T09:42:06;12.80;64.00
6824;DHT22;58633;49.470;11.004;2022-11-15T09:45:03;12.80;63.20
6824;DHT22;58633;49.470;11.004;2022-11-15T09:47:39;12.70;62.90
6824;DHT22;58633;49.470;11.004;2022-11-15T09:50:28;12.80;62.60
6824;DHT22;58633;49.470;11.004;2022-11-15T09:52:57;12.90;62.20
6824;DHT22;58633;49.470;11.004;2022-11-15T09:55:34;13.20;62.30
6824;DHT22;58633;49.470;11.004;2022-11-15T09:58:33;13.80;62.20
6824;DHT22;58633;49.470;11.004;2022-11-15T10:01:04;13.60;61.60
6824;DHT22;58633;49.470;11.004;2022-11-15T10:03:35;13.40;60.90
6824;DHT22;58633;49.470;11.004;2022-11-15T10:06:04;14.20;61.40
6824;DHT22;58633;49.470;11.004;2022-11-15T10:11:19;13.70;60.20
6824;DHT22;58633;49.470;11.004;2022-11-15T10:13:47;13.80;59.60
6824;DHT22;58633;49.470;11.004;2022-11-15T10:19:26;14.00;59.40
6824;DHT22;58633;49.470;11.004;2022-11-15T10:22:18;14.30;59.50
6824;DHT22;58633;49.470;11.004;2022-11-15T10:24:46;14.20;59.60
6824;DHT22;58633;49.470;11.004;2022-11-15T10:27:16;14.50;58.60
6824;DHT22;58633;49.470;11.004;2022-11-15T10:29:44;14.80;58.50
6824;DHT22;58633;49.470;11.004;2022-11-15T10:32:13;14.60;58.10
6824;DHT22;58633;49.470;11.004;2022-11-15T10:37:04;14.90;58.50
6824;DHT22;58633;49.470;11.004;2022-11-15T10:39:30;15.20;58.40
6824;DHT22;58633;49.470;11.004;2022-11-15T10:41:56;15.40;57.30
6824;DHT22;58633;49.470;11.004;2022-11-15T10:44:28;15.60;56.90
6824;DHT22;58633;49.470;11.004;2022-11-15T10:49:22;15.70;56.00
6824;DHT22;58633;49.470;11.004;2022-11-15T10:51:53;15.80;55.90
6824;DHT22;58633;49.470;11.004;2022-11-15T10:54:30;16.00;55.60
6824;DHT22;58633;49.470;11.004;2022-11-15T10:56:59;15.90;54.90
6824;DHT22;58633;49.470;11.004;2022-11-15T10:59:29;16.00;54.80
6824;DHT22;58633;49.470;11.004;2022-11-15T11:01:56;16.20;54.90
6824;DHT22;58633;49.470;11.004;2022-11-15T11:04:21;19.60;58.10
6824;DHT22;58633;49.470;11.004;2022-11-15T11:06:55;16.30;55.10
6824;DHT22;58633;49.470;11.004;2022-11-15T11:09:27;16.70;54.40
6824;DHT22;58633;49.470;11.004;2022-11-15T11:11:54;16.70;54.20
6824;DHT22;58633;49.470;11.004;2022-11-15T11:14:31;17.00;54.20
6824;DHT22;58633;49.470;11.004;2022-11-15T11:17:16;17.00;53.50
6824;DHT22;58633;49.470;11.004;2022-11-15T11:22:44;17.60;54.00
6824;DHT22;58633;49.470;11.004;2022-11-15T11:25:25;17.80;53.40
6824;DHT22;58633;49.470;11.004;2022-11-15T11:28:05;17.60;52.60
6824;DHT22;58633;49.470;11.004;2022-11-15T11:33:16;18.40;52.10
6824;DHT22;58633;49.470;11.004;2022-11-15T11:38:56;18.10;51.70
6824;DHT22;58633;49.470;11.004;2022-11-15T11:41:43;18.10;51.90
6824;DHT22;58633;49.470;11.004;2022-11-15T11:47:28;18.30;51.80
6824;DHT22;58633;49.470;11.004;2022-11-15T11:50:23;18.30;51.20
6824;DHT22;58633;49.470;11.004;2022-11-15T11:52:59;18.30;51.50
6824;DHT22;58633;49.470;11.004;2022-11-15T11:55:31;18.40;50.80
6824;DHT22;58633;49.470;11.004;2022-11-15T12:00:27;18.90;49.90
6824;DHT22;58633;49.470;11.004;2022-11-15T12:05:34;19.20;49.50
6824;DHT22;58633;49.470;11.004;2022-11-15T12:10:57;19.10;48.40
6824;DHT22;58633;49.470;11.004;2022-11-15T12:13:26;19.10;48.70
6824;DHT22;58633;49.470;11.004;2022-11-15T12:16:08;18.90;49.10
6824;DHT22;58633;49.470;11.004;2022-11-15T12:18:37;19.20;49.20
6824;DHT22;58633;49.470;11.004;2022-11-15T12:23:50;18.60;48.30
6824;DHT22;58633;49.470;11.004;2022-11-15T12:26:22;18.60;48.50
6824;DHT22;58633;49.470;11.004;2022-11-15T12:28:57;18.50;48.50
6824;DHT22;58633;49.470;11.004;2022-11-15T12:31:35;18.90;49.00
6824;DHT22;58633;49.470;11.004;2022-11-15T12:36:49;18.80;48.20
6824;DHT22;58633;49.470;11.004;2022-11-15T12:39:17;18.90;48.00
6824;DHT22;58633;49.470;11.004;2022-11-15T13:02:42;17.90;49.30
6824;DHT22;58633;49.470;11.004;2022-11-15T13:17:49;17.40;49.30
6824;DHT22;58633;49.470;11.004;2022-11-15T13:20:30;17.30;49.40
6824;DHT22;58633;49.470;11.004;2022-11-15T13:23:14;16.90;49.10
6824;DHT22;58633;49.470;11.004;2022-11-15T13:33:58;17.20;49.90
6824;DHT22;58633;49.470;11.004;2022-11-15T13:36:28;18.10;50.70
6824;DHT22;58633;49.470;11.004;2022-11-15T13:41:51;17.30;50.20
6824;DHT22;58633;49.470;11.004;2022-11-15T13:44:35;17.30;50.30
6824;DHT22;58633;49.470;11.004;2022-11-15T13:47:14;17.40;50.20
6824;DHT22;58633;49.470;11.004;2022-11-15T13:49:41;17.50;50.30
6824;DHT22;58633;49.470;11.004;2022-11-15T13:52:15;17.40;50.30
6824;DHT22;58633;49.470;11.004;2022-11-15T13:54:58;17.50;50.00
6824;DHT22;58633;49.470;11.004;2022-11-15T13:57:28;17.60;49.90
6824;DHT22;58633;49.470;11.004;2022-11-15T14:00:03;17.80;50.10
6824;DHT22;58633;49.470;11.004;2022-11-15T14:02:33;17.70;49.90
6824;DHT22;58633;49.470;11.004;2022-11-15T14:05:05;17.80;50.10
6824;DHT22;58633;49.470;11.004;2022-11-15T14:07:31;17.40;49.70
6824;DHT22;58633;49.470;11.004;2022-11-15T14:09:57;17.60;50.00
6824;DHT22;58633;49.470;11.004;2022-11-15T14:12:34;17.60;50.00
6824;DHT22;58633;49.470;11.004;2022-11-15T14:15:18;17.50;50.00
6824;DHT22;58633;49.470;11.004;2022-11-15T14:20:30;17.30;50.50
6824;DHT22;58633;49.470;11.004;2022-11-15T14:23:02;17.30;50.70
6824;DHT22;58633;49.470;11.004;2022-11-15T14:25:30;17.40;50.90
6824;DHT22;58633;49.470;11.004;2022-11-15T14:28:34;17.40;50.90
6824;DHT22;58633;49.470;11.004;2022-11-15T14:31:10;17.80;51.40
6824;DHT22;58633;49.470;11.004;2022-11-15T14:33:37;16.50;50.50
6824;DHT22;58633;49.470;11.004;2022-11-15T14:38:36;16.60;51.30
6824;DHT22;58633;49.470;11.004;2022-11-15T14:41:02;16.60;51.60
6824;DHT22;58633;49.470;11.004;2022-11-15T14:43:27;16.40;52.00
6824;DHT22;58633;49.470;11.004;2022-11-15T14:45:53;16.20;51.80
6824;DHT22;58633;49.470;11.004;2022-11-15T14:48:19;16.30;52.10
6824;DHT22;58633;49.470;11.004;2022-11-15T14:50:44;16.20;52.20
6824;DHT22;58633;49.470;11.004;2022-11-15T14:53:16;16.20;52.30
6824;DHT22;58633;49.470;11.004;2022-11-15T14:55:41;16.10;52.40
6824;DHT22;58633;49.470;11.004;2022-11-15T14:58:08;16.10;52.50
6824;DHT22;58633;49.470;11.004;2022-11-15T15:00:37;15.90;52.50
6824;DHT22;58633;49.470;11.004;2022-11-15T15:03:03;15.90;52.60
6824;DHT22;58633;49.470;11.004;2022-11-15T15:07:55;15.70;52.90
6824;DHT22;58633;49.470;11.004;2022-11-15T15:10:21;15.90;53.40
6824;DHT22;58633;49.470;11.004;2022-11-15T15:12:48;15.30;53.00
6824;DHT22;58633;49.470;11.004;2022-11-15T15:15:26;15.60;53.30
6824;DHT22;58633;49.470;11.004;2022-11-15T15:17:52;15.50;53.50
6824;DHT22;58633;49.470;11.004;2022-11-15T15:20:17;15.50;53.70
6824;DHT22;58633;49.470;11.004;2022-11-15T15:22:43;15.10;53.50
6824;DHT22;58633;49.470;11.004;2022-11-15T15:27:52;14.80;53.70
6824;DHT22;58633;49.470;11.004;2022-11-15T15:30:17;15.10;54.10
6824;DHT22;58633;49.470;11.004;2022-11-15T15:32:44;15.10;54.30
6824;DHT22;58633;49.470;11.004;2022-11-15T15:35:12;15.40;54.70
6824;DHT22;58633;49.470;11.004;2022-11-15T15:37:38;15.10;54.60
6824;DHT22;58633;49.470;11.004;2022-11-15T15:40:11;15.10;54.70
6824;DHT22;58633;49.470;11.004;2022-11-15T15:42:38;15.00;54.60
6824;DHT22;58633;49.470;11.004;2022-11-15T15:45:05;15.10;54.70
6824;DHT22;58633;49.470;11.004;2022-11-15T15:47:30;14.80;54.50
6824;DHT22;58633;49.470;11.004;2022-11-15T15:49:57;14.90;54.70
6824;DHT22;58633;49.470;11.004;2022-11-15T15:52:22;15.00;54.90
6824;DHT22;58633;49.470;11.004;2022-11-15T15:57:15;15.00;55.00
6824;DHT22;58633;49.470;11.004;2022-11-15T15:59:41;14.80;55.00
6824;DHT22;58633;49.470;11.004;2022-11-15T16:02:11;14.70;55.10
6824;DHT22;58633;49.470;11.004;2022-11-15T16:09:29;14.40;55.10
6824;DHT22;58633;49.470;11.004;2022-11-15T16:14:41;14.60;55.50
6824;DHT22;58633;49.470;11.004;2022-11-15T16:17:26;14.50;55.40
6824;DHT22;58633;49.470;11.004;2022-11-15T16:19:52;14.70;55.60
6824;DHT22;58633;49.470;11.004;2022-11-15T16:22:17;14.70;55.90
6824;DHT22;58633;49.470;11.004;2022-11-15T16:24:43;14.20;55.70
6824;DHT22;58633;49.470;11.004;2022-11-15T16:27:19;14.50;56.10
6824;DHT22;58633;49.470;11.004;2022-11-15T16:29:46;14.20;56.20
6824;DHT22;58633;49.470;11.004;2022-11-15T16:32:13;14.40;56.50
6824;DHT22;58633;49.470;11.004;2022-11-15T16:37:05;14.30;56.60
6824;DHT22;58633;49.470;11.004;2022-11-15T16:39:31;14.30;56.60
6824;DHT22;58633;49.470;11.004;2022-11-15T16:42:00;14.20;56.70
6824;DHT22;58633;49.470;11.004;2022-11-15T16:44:26;14.10;57.20
6824;DHT22;58633;49.470;11.004;2022-11-15T16:46:52;14.20;57.10
6824;DHT22;58633;49.470;11.004;2022-11-15T16:49:19;14.30;57.20
6824;DHT22;58633;49.470;11.004;2022-11-15T16:51:46;14.20;57.30
6824;DHT22;58633;49.470;11.004;2022-11-15T16:54:13;14.10;57.30
6824;DHT22;58633;49.470;11.004;2022-11-15T16:56:39;13.80;57.20
6824;DHT22;58633;49.470;11.004;2022-11-15T17:01:34;14.10;57.40
6824;DHT22;58633;49.470;11.004;2022-11-15T17:04:00;14.10;57.70
6824;DHT22;58633;49.470;11.004;2022-11-15T17:06:40;14.10;57.70
6824;DHT22;58633;49.470;11.004;2022-11-15T17:09:11;13.90;57.80
6824;DHT22;58633;49.470;11.004;2022-11-15T17:11:37;14.00;58.00
6824;DHT22;58633;49.470;11.004;2022-11-15T17:14:02;13.70;57.90
6824;DHT22;58633;49.470;11.004;2022-11-15T17:16:28;14.10;58.40
6824;DHT22;58633;49.470;11.004;2022-11-15T17:18:53;13.80;58.40
6824;DHT22;58633;49.470;11.004;2022-11-15T17:21:21;13.90;58.70
6824;DHT22;58633;49.470;11.004;2022-11-15T17:26:14;13.80;58.90
6824;DHT22;58633;49.470;11.004;2022-11-15T17:28:41;13.80;60.00
6824;DHT22;58633;49.470;11.004;2022-11-15T17:31:10;13.70;59.20
6824;DHT22;58633;49.470;11.004;2022-11-15T17:36:06;13.70;59.40
6824;DHT22;58633;49.470;11.004;2022-11-15T17:41:13;13.30;59.40
6824;DHT22;58633;49.470;11.004;2022-11-15T17:46:11;13.80;60.10
6824;DHT22;58633;49.470;11.004;2022-11-15T17:51:04;13.30;60.00
6824;DHT22;58633;49.470;11.004;2022-11-15T17:53:32;13.40;60.10
6824;DHT22;58633;49.470;11.004;2022-11-15T17:56:06;13.30;60.10
6824;DHT22;58633;49.470;11.004;2022-11-15T17:58:32;13.40;60.30
6824;DHT22;58633;49.470;11.004;2022-11-15T18:03:40;13.10;60.10
6824;DHT22;58633;49.470;11.004;2022-11-15T18:06:07;13.20;60.40
6824;DHT22;58633;49.470;11.004;2022-11-15T18:08:39;13.10;60.70
6824;DHT22;58633;49.470;11.004;2022-11-15T18:11:18;13.30;60.80
6824;DHT22;58633;49.470;11.004;2022-11-15T18:13:49;13.20;60.70
6824;DHT22;58633;49.470;11.004;2022-11-15T18:16:18;13.10;60.70
6824;DHT22;58633;49.470;11.004;2022-11-15T18:18:44;12.80;60.30
6824;DHT22;58633;49.470;11.004;2022-11-15T18:21:16;13.30;60.80
6824;DHT22;58633;49.470;11.004;2022-11-15T18:23:43;13.00;60.50
6824;DHT22;58633;49.470;11.004;2022-11-15T18:26:10;13.00;60.60
6824;DHT22;58633;49.470;11.004;2022-11-15T18:28:39;13.10;60.70
6824;DHT22;58633;49.470;11.004;2022-11-15T18:31:24;13.00;60.60
6824;DHT22;58633;49.470;11.004;2022-11-15T18:33:50;13.00;61.20
6824;DHT22;58633;49.470;11.004;2022-11-15T18:36:18;12.60;60.20
6824;DHT22;58633;49.470;11.004;2022-11-15T18:38:45;13.00;60.60
6824;DHT22;58633;49.470;11.004;2022-11-15T18:41:15;13.00;60.60
6824;DHT22;58633;49.470;11.004;2022-11-15T18:43:43;12.90;60.40
6824;DHT22;58633;49.470;11.004;2022-11-15T18:46:14;12.90;60.40
6824;DHT22;58633;49.470;11.004;2022-11-15T18:48:40;13.20;60.70
6824;DHT22;58633;49.470;11.004;2022-11-15T18:51:08;13.10;60.80
6824;DHT22;58633;49.470;11.004;2022-11-15T18:53:34;13.70;61.30
6824;DHT22;58633;49.470;11.004;2022-11-15T18:56:08;12.60;60.20
6824;DHT22;58633;49.470;11.004;2022-11-15T18:58:41;12.50;60.00
6824;DHT22;58633;49.470;11.004;2022-11-15T19:01:14;12.70;60.20
6824;DHT22;58633;49.470;11.004;2022-11-15T19:03:43;13.20;60.90
6824;DHT22;58633;49.470;11.004;2022-11-15T19:06:20;12.50;60.20
6824;DHT22;58633;49.470;11.004;2022-11-15T19:08:47;12.70;60.50
6824;DHT22;58633;49.470;11.004;2022-11-15T19:11:15;12.60;60.30
6824;DHT22;58633;49.470;11.004;2022-11-15T19:13:42;12.60;60.40
6824;DHT22;58633;49.470;11.004;2022-11-15T19:16:10;12.70;60.60